Onweer radar Meer informatie blitzortung!


Regen radar Meer informatie rain snow radar



METAR rapporten vliegvelden

   
EHRD - Rotterdam
Gewijzigd: 23-10-2020 01:25
Helder  
Helder  
   Wind: ZZW 6 km/h
Wind: ZZW 6 km/h
Temperatuur: 11°C
Dauwpunt: 10°C
Vochtigheid: 94%
Barometer: 1011 hPa
Bewolking: Clear
Zicht: meer dan 10 km
Bewolking: Helder ft
EHRD 222325Z AUTO 20006KT 9999 NCD 11/10 Q1011 NOSIG
EHAM - Amsterdam
Gewijzigd: 23-10-2020 01:25
Licht bewolkt  
Licht bewolkt  
   Wind: ZW 6 km/h
Wind: ZW 6 km/h
Temperatuur: 10°C
Voelt als: 8°C
Dauwpunt: 9°C
Vochtigheid: 94%
Barometer: 1010 hPa
Bewolking: Few Clouds
Zicht: meer dan 10 km
Bewolking: Licht bewolkt 1200 ft
EHAM 222325Z 23006KT 9999 FEW012 10/09 Q1010 NOSIG
EHEH - Eindhoven
Gewijzigd: 23-10-2020 01:25
Mist, Bewolking  
Mist, Bewolking  
   Wind: ZZW 2 km/h
Wind: ZZW 2 km/h
Temperatuur: 11°C
Dauwpunt: 11°C
Vochtigheid: 100%
Barometer: 1012 hPa
Bewolking: Overcast
Zicht: 1 km
Bewolking: Grotendeels bewolkt 0 ft,
Bewolking 23000 ft
EHEH 222325Z AUTO 20002KT 0500 FG BKN000 OVC230 11/11 Q1012 RED

Script ontwikkeld door  Saratoga-weather.org Aangepast voor de template door  Weerstation Leuven

U vindt ons ook hier:

Het Weer Aktueel

Apparatuur in gebruik:

Weerstation
Davis VP2

Weerprogramma
Cumulus

Weercomputer
Pipo X9 with Windows 10

Davis VP2

Cumulus

Pipo X9 with Windows 10